createdAt,value
2022-12-27T00:00:00.233Z,3.5
2022-12-27T00:01:00.322Z,3.5
2022-12-27T00:02:00.395Z,3.5
2022-12-27T00:03:00.380Z,3.5
2022-12-27T00:04:00.279Z,3.3
2022-12-27T00:05:00.247Z,3.3
2022-12-27T00:06:04.924Z,3.3
2022-12-27T00:07:00.227Z,3.3
2022-12-27T00:08:00.254Z,3.3
2022-12-27T00:09:01.504Z,3.1
2022-12-27T00:10:00.255Z,3.1
2022-12-27T00:11:05.998Z,3.1
2022-12-27T00:12:00.373Z,3.1
2022-12-27T00:13:00.251Z,3.1
2022-12-27T00:14:02.793Z,3.5
2022-12-27T00:15:00.475Z,3.5
2022-12-27T00:16:03.415Z,3.5
2022-12-27T00:17:00.260Z,3.5
2022-12-27T00:18:00.866Z,3.5
2022-12-27T00:19:01.261Z,3.5
2022-12-27T00:20:04.089Z,3.5
2022-12-27T00:21:02.644Z,3.5
2022-12-27T00:22:00.228Z,3.5
2022-12-27T00:23:00.328Z,3.5
2022-12-27T00:24:00.216Z,3.5
2022-12-27T00:25:00.395Z,3.5
2022-12-27T00:26:04.317Z,3.5
2022-12-27T00:27:00.300Z,3.5
2022-12-27T00:28:00.212Z,3.5
2022-12-27T00:29:00.919Z,3.6
2022-12-27T00:30:00.254Z,3.6
2022-12-27T00:31:01.052Z,3.6
2022-12-27T00:32:00.531Z,3.6
2022-12-27T00:33:00.231Z,3.6
2022-12-27T00:34:02.163Z,3.4
2022-12-27T00:35:00.291Z,3.4
2022-12-27T00:36:02.970Z,3.4
2022-12-27T00:37:00.228Z,3.4
2022-12-27T00:38:00.223Z,3.4
2022-12-27T00:39:00.632Z,4.0
2022-12-27T00:40:00.227Z,4.0
2022-12-27T00:41:00.406Z,4.0
2022-12-27T00:42:00.262Z,4.0
2022-12-27T00:43:00.207Z,4.0
2022-12-27T00:44:00.224Z,3.6
2022-12-27T00:45:00.244Z,3.6
2022-12-27T00:46:00.937Z,3.6
2022-12-27T00:47:00.231Z,3.6
2022-12-27T00:48:00.259Z,3.6
2022-12-27T00:49:00.324Z,4.8
2022-12-27T00:50:00.230Z,4.8
2022-12-27T00:51:03.784Z,4.8
2022-12-27T00:52:00.291Z,4.8
2022-12-27T00:53:00.399Z,4.8
2022-12-27T00:54:00.306Z,3.9
2022-12-27T00:55:00.365Z,3.9
2022-12-27T00:56:00.696Z,3.9
2022-12-27T00:57:00.231Z,3.9
2022-12-27T00:58:00.611Z,3.9
2022-12-27T00:59:02.781Z,4.3
2022-12-27T01:00:04.644Z,4.3
2022-12-27T01:01:09.617Z,4.3
2022-12-27T01:02:00.379Z,4.3
2022-12-27T01:03:00.244Z,4.3
2022-12-27T01:04:01.461Z,3.7
2022-12-27T01:05:00.234Z,3.7
2022-12-27T01:06:05.599Z,3.7
2022-12-27T01:07:00.250Z,3.7
2022-12-27T01:08:00.230Z,3.7
2022-12-27T01:09:01.175Z,4.2
2022-12-27T01:10:00.250Z,4.2
2022-12-27T01:11:00.775Z,4.2
2022-12-27T01:12:00.255Z,4.2
2022-12-27T01:13:01.578Z,3.9
2022-12-27T01:14:03.711Z,3.9
2022-12-27T01:15:00.741Z,3.9
2022-12-27T01:16:00.377Z,3.9
2022-12-27T01:17:00.268Z,3.9
2022-12-27T01:18:00.222Z,3.9
2022-12-27T01:19:00.616Z,3.9
2022-12-27T01:20:00.697Z,3.9
2022-12-27T01:21:03.832Z,3.9
2022-12-27T01:22:00.209Z,3.9
2022-12-27T01:23:00.212Z,6.9
2022-12-27T01:24:00.306Z,6.9
2022-12-27T01:25:00.202Z,6.9
2022-12-27T01:26:01.638Z,6.9
2022-12-27T01:27:00.230Z,6.9
2022-12-27T01:28:00.544Z,6.1
2022-12-27T01:29:00.200Z,6.1
2022-12-27T01:30:00.187Z,6.1
2022-12-27T01:31:04.824Z,6.1
2022-12-27T01:32:00.299Z,6.1
2022-12-27T01:33:00.237Z,4.5
2022-12-27T01:34:00.463Z,4.5
2022-12-27T01:35:00.785Z,4.5
2022-12-27T01:36:11.861Z,4.5
2022-12-27T01:37:00.429Z,4.5
2022-12-27T01:38:00.185Z,4.9
2022-12-27T01:39:00.311Z,4.9
2022-12-27T01:40:00.207Z,4.9
2022-12-27T01:41:00.165Z,4.9
2022-12-27T01:42:00.168Z,4.9
2022-12-27T01:43:00.176Z,4.4
2022-12-27T01:44:00.361Z,4.4
2022-12-27T01:45:00.975Z,4.4
2022-12-27T01:46:00.232Z,4.4
2022-12-27T01:47:02.061Z,4.4
2022-12-27T01:48:05.646Z,4.0
2022-12-27T01:49:02.306Z,4.0
2022-12-27T01:50:10.125Z,4.0
2022-12-27T01:51:02.893Z,4.0
2022-12-27T01:52:00.250Z,4.0
2022-12-27T01:53:13.384Z,4.7
2022-12-27T01:54:00.239Z,4.7
2022-12-27T01:55:07.116Z,4.7
2022-12-27T01:56:03.593Z,4.7
2022-12-27T01:57:01.305Z,4.7
2022-12-27T01:58:05.039Z,4.5
2022-12-27T01:59:04.277Z,4.5
2022-12-27T02:00:00.240Z,4.5
2022-12-27T02:01:01.479Z,4.5
2022-12-27T02:02:00.551Z,4.5
2022-12-27T02:03:03.271Z,6.5
2022-12-27T02:04:02.737Z,6.5
2022-12-27T02:05:00.335Z,6.5
2022-12-27T02:06:02.059Z,6.5
2022-12-27T02:07:00.550Z,6.5
2022-12-27T02:08:19.773Z,4.2
2022-12-27T02:09:09.237Z,4.2
2022-12-27T02:10:01.324Z,4.2
2022-12-27T02:11:01.717Z,4.2
2022-12-27T02:12:04.364Z,4.2
2022-12-27T02:13:03.186Z,5.4
2022-12-27T02:14:00.854Z,5.4
2022-12-27T02:15:00.209Z,5.4
2022-12-27T02:16:00.890Z,5.4
2022-12-27T02:17:05.405Z,5.4
2022-12-27T02:18:00.723Z,3.3
2022-12-27T02:19:00.255Z,3.3
2022-12-27T02:20:13.182Z,3.3
2022-12-27T02:21:20.133Z,3.3
2022-12-27T02:22:20.159Z,3.3
2022-12-27T02:23:20.123Z,3.7
2022-12-27T02:24:20.116Z,3.7
2022-12-27T02:25:08.736Z,3.7
2022-12-27T02:26:20.161Z,3.7
2022-12-27T02:27:05.959Z,3.7
2022-12-27T02:28:10.192Z,4.1
2022-12-27T02:29:11.192Z,4.1
2022-12-27T02:30:04.951Z,4.1
2022-12-27T02:31:09.814Z,4.1
2022-12-27T02:32:13.810Z,4.1
2022-12-27T02:33:11.161Z,3.6
2022-12-27T02:34:07.880Z,3.6
2022-12-27T02:35:16.869Z,3.6
2022-12-27T02:36:04.679Z,3.6
2022-12-27T02:37:06.081Z,3.6
2022-12-27T02:38:05.783Z,5.7
2022-12-27T02:39:01.843Z,5.7
2022-12-27T02:40:03.272Z,5.7
2022-12-27T02:41:03.145Z,5.7
2022-12-27T02:42:01.419Z,5.7
2022-12-27T02:43:01.361Z,8.4
2022-12-27T02:44:00.422Z,8.4
2022-12-27T02:45:02.375Z,8.4
2022-12-27T02:46:09.386Z,8.4
2022-12-27T02:47:00.732Z,8.4
2022-12-27T02:48:00.317Z,6.1
2022-12-27T02:49:00.507Z,6.1
2022-12-27T02:50:00.251Z,6.1
2022-12-27T02:51:10.157Z,6.1
2022-12-27T02:52:05.640Z,6.1
2022-12-27T02:53:20.120Z,6.9
2022-12-27T02:54:20.123Z,6.9
2022-12-27T02:55:20.123Z,6.9
2022-12-27T02:56:15.206Z,6.9
2022-12-27T02:57:18.207Z,6.9
2022-12-27T02:58:13.434Z,6.8
2022-12-27T02:59:11.176Z,6.8
2022-12-27T03:00:05.316Z,6.8
2022-12-27T03:01:03.563Z,6.8
2022-12-27T03:02:18.289Z,6.8
2022-12-27T03:03:09.423Z,5.9
2022-12-27T03:04:17.728Z,5.9
2022-12-27T03:05:17.389Z,5.9
2022-12-27T03:06:10.220Z,5.9
2022-12-27T03:07:11.523Z,5.9
2022-12-27T03:08:07.636Z,7.3
2022-12-27T03:09:18.011Z,7.3
2022-12-27T03:10:13.161Z,7.3
2022-12-27T03:11:01.646Z,7.3
2022-12-27T03:12:06.508Z,7.3
2022-12-27T03:13:13.435Z,6.3
2022-12-27T03:14:12.310Z,6.3
2022-12-27T03:15:08.298Z,6.3
2022-12-27T03:16:17.335Z,6.3
2022-12-27T03:17:06.315Z,6.3
2022-12-27T03:18:06.811Z,5.0
2022-12-27T03:19:07.333Z,5.0
2022-12-27T03:20:08.243Z,5.0
2022-12-27T03:21:02.617Z,5.0
2022-12-27T03:22:01.143Z,5.0
2022-12-27T03:23:02.732Z,7.5
2022-12-27T03:24:00.506Z,7.5
2022-12-27T03:25:02.173Z,7.5
2022-12-27T03:26:02.986Z,7.5
2022-12-27T03:27:06.871Z,7.5
2022-12-27T03:28:05.627Z,7.2
2022-12-27T03:29:02.420Z,7.2
2022-12-27T03:30:04.354Z,7.2
2022-12-27T03:31:04.942Z,7.2
2022-12-27T03:32:04.903Z,7.2
2022-12-27T03:33:04.302Z,7.1
2022-12-27T03:34:06.076Z,7.1
2022-12-27T03:35:07.296Z,7.1
2022-12-27T03:36:08.913Z,7.1
2022-12-27T03:37:06.146Z,7.1
2022-12-27T03:38:02.905Z,7.3
2022-12-27T03:39:18.165Z,7.3
2022-12-27T03:40:14.578Z,7.3
2022-12-27T03:41:03.183Z,7.3
2022-12-27T03:42:04.392Z,7.3
2022-12-27T03:43:05.447Z,5.9
2022-12-27T03:44:00.418Z,5.9
2022-12-27T03:45:00.336Z,5.9
2022-12-27T03:46:08.706Z,5.9
2022-12-27T03:47:19.288Z,5.9
2022-12-27T03:48:04.723Z,5.6
2022-12-27T03:49:07.829Z,5.6
2022-12-27T03:50:12.494Z,5.6
2022-12-27T03:51:03.591Z,5.6
2022-12-27T03:52:07.220Z,5.6
2022-12-27T03:53:09.154Z,7.1
2022-12-27T03:54:05.699Z,7.1
2022-12-27T03:55:01.534Z,7.1
2022-12-27T03:56:00.706Z,7.1
2022-12-27T03:57:04.219Z,7.1
2022-12-27T03:58:00.388Z,7.3
2022-12-27T03:59:01.448Z,7.3
2022-12-27T04:00:00.270Z,7.3
2022-12-27T04:01:00.329Z,7.3
2022-12-27T04:02:01.117Z,7.3
2022-12-27T04:03:00.436Z,7.6
2022-12-27T04:04:00.255Z,7.6
2022-12-27T04:05:00.239Z,7.6
2022-12-27T04:06:00.227Z,7.6
2022-12-27T04:07:00.531Z,7.6
2022-12-27T04:08:00.219Z,5.2
2022-12-27T04:09:00.210Z,5.2
2022-12-27T04:10:00.289Z,5.2
2022-12-27T04:11:00.252Z,5.2
2022-12-27T04:12:00.257Z,5.2
2022-12-27T04:13:00.217Z,7.3
2022-12-27T04:14:00.221Z,7.3
2022-12-27T04:15:00.311Z,7.3
2022-12-27T04:16:00.305Z,7.3
2022-12-27T04:17:00.227Z,7.3
2022-12-27T04:18:00.206Z,9.8
2022-12-27T04:19:00.216Z,9.8
2022-12-27T04:20:00.259Z,9.8
2022-12-27T04:21:00.289Z,9.8
2022-12-27T04:22:00.289Z,9.8
2022-12-27T04:23:00.221Z,7.0
2022-12-27T04:24:00.224Z,7.0
2022-12-27T04:25:00.230Z,7.0
2022-12-27T04:26:00.225Z,7.0
2022-12-27T04:27:00.244Z,7.0
2022-12-27T04:28:00.214Z,7.4
2022-12-27T04:29:00.221Z,7.4
2022-12-27T04:30:00.243Z,7.4
2022-12-27T04:31:00.298Z,7.4
2022-12-27T04:32:00.220Z,7.4
2022-12-27T04:33:00.256Z,7.8
2022-12-27T04:34:00.277Z,7.8
2022-12-27T04:35:00.239Z,7.8
2022-12-27T04:36:05.958Z,7.8
2022-12-27T04:37:00.277Z,7.8
2022-12-27T04:38:00.260Z,6.2
2022-12-27T04:39:00.290Z,6.2
2022-12-27T04:40:00.224Z,6.2
2022-12-27T04:41:00.311Z,6.2
2022-12-27T04:42:00.298Z,6.2
2022-12-27T04:43:00.204Z,9.1
2022-12-27T04:44:00.214Z,9.1
2022-12-27T04:45:00.261Z,9.1
2022-12-27T04:46:00.346Z,9.1
2022-12-27T04:47:00.305Z,9.1
2022-12-27T04:48:00.493Z,11.2
2022-12-27T04:49:00.228Z,11.2
2022-12-27T04:50:01.270Z,11.2
2022-12-27T04:51:00.658Z,11.2
2022-12-27T04:52:00.308Z,11.2
2022-12-27T04:53:00.219Z,7.9
2022-12-27T04:54:00.216Z,7.9
2022-12-27T04:55:13.281Z,7.9
2022-12-27T04:56:00.293Z,7.9
2022-12-27T04:57:00.289Z,7.9
2022-12-27T04:58:00.215Z,7.8
2022-12-27T04:59:00.251Z,7.8
2022-12-27T05:00:00.274Z,7.8
2022-12-27T05:01:02.548Z,7.8
2022-12-27T05:02:00.385Z,7.8
2022-12-27T05:03:04.122Z,6.3
2022-12-27T05:04:00.248Z,6.3
2022-12-27T05:05:00.292Z,6.3
2022-12-27T05:06:00.977Z,6.3
2022-12-27T05:07:00.510Z,6.3
2022-12-27T05:08:00.844Z,11.1
2022-12-27T05:09:00.326Z,11.1
2022-12-27T05:10:03.401Z,11.1
2022-12-27T05:11:00.255Z,11.1
2022-12-27T05:12:00.230Z,11.1
2022-12-27T05:13:00.257Z,7.7
2022-12-27T05:14:05.948Z,7.7
2022-12-27T05:15:00.350Z,7.7
2022-12-27T05:16:00.408Z,7.7
2022-12-27T05:17:00.202Z,7.7
2022-12-27T05:18:00.357Z,8.3
2022-12-27T05:19:00.592Z,8.3
2022-12-27T05:20:00.231Z,8.3
2022-12-27T05:21:02.028Z,8.3
2022-12-27T05:22:00.282Z,8.3
2022-12-27T05:23:00.254Z,9.4
2022-12-27T05:24:04.952Z,9.4
2022-12-27T05:25:00.254Z,9.4
2022-12-27T05:26:00.292Z,9.4
2022-12-27T05:27:00.275Z,9.4
2022-12-27T05:28:00.797Z,10.1
2022-12-27T05:29:00.292Z,10.1
2022-12-27T05:30:00.291Z,10.1
2022-12-27T05:31:01.146Z,10.1
2022-12-27T05:32:00.285Z,10.1
2022-12-27T05:33:00.331Z,7.5
2022-12-27T05:34:00.237Z,7.5
2022-12-27T05:35:00.268Z,7.5
2022-12-27T05:36:00.273Z,7.5
2022-12-27T05:37:00.264Z,7.5
2022-12-27T05:38:00.811Z,8.1
2022-12-27T05:39:00.387Z,8.1
2022-12-27T05:40:00.201Z,8.1
2022-12-27T05:41:01.630Z,8.1
2022-12-27T05:42:00.284Z,8.1
2022-12-27T05:43:01.882Z,10.4
2022-12-27T05:44:06.585Z,10.4
2022-12-27T05:45:00.203Z,10.4
2022-12-27T05:46:03.144Z,10.4
2022-12-27T05:47:00.374Z,10.4
2022-12-27T05:48:00.345Z,6.2
2022-12-27T05:49:00.260Z,6.2
2022-12-27T05:50:00.243Z,6.2
2022-12-27T05:51:12.162Z,6.2
2022-12-27T05:52:00.294Z,6.2
2022-12-27T05:53:00.207Z,7.6
2022-12-27T05:54:00.363Z,7.6
2022-12-27T05:55:00.334Z,7.6
2022-12-27T05:56:01.057Z,7.6
2022-12-27T05:57:00.255Z,7.6
2022-12-27T05:58:00.212Z,9.8
2022-12-27T05:59:00.210Z,9.8
2022-12-27T06:00:00.279Z,9.8
2022-12-27T06:01:05.932Z,9.8
2022-12-27T06:02:00.460Z,9.8
2022-12-27T06:03:01.150Z,10.9
2022-12-27T06:04:00.256Z,10.9
2022-12-27T06:05:00.232Z,10.9
2022-12-27T06:06:02.266Z,10.9
2022-12-27T06:07:00.276Z,10.9
2022-12-27T06:08:00.239Z,10.9
2022-12-27T06:09:00.214Z,10.9
2022-12-27T06:10:00.249Z,10.9
2022-12-27T06:11:05.501Z,10.9
2022-12-27T06:12:00.219Z,10.9
2022-12-27T06:13:01.487Z,12.2
2022-12-27T06:14:00.214Z,12.2
2022-12-27T06:15:00.314Z,12.2
2022-12-27T06:16:01.441Z,12.2
2022-12-27T06:17:00.239Z,12.2
2022-12-27T06:18:00.316Z,8.1
2022-12-27T06:19:00.251Z,8.1
2022-12-27T06:20:00.355Z,8.1
2022-12-27T06:21:01.172Z,8.1
2022-12-27T06:22:00.261Z,8.1
2022-12-27T06:23:00.235Z,9.0
2022-12-27T06:24:00.241Z,9.0
2022-12-27T06:25:00.267Z,9.0
2022-12-27T06:26:10.321Z,9.0
2022-12-27T06:27:00.215Z,9.0
2022-12-27T06:28:00.207Z,10.4
2022-12-27T06:29:00.319Z,10.4
2022-12-27T06:30:00.498Z,10.4
2022-12-27T06:31:01.211Z,10.4
2022-12-27T06:32:00.366Z,10.4
2022-12-27T06:33:00.272Z,8.8
2022-12-27T06:34:00.220Z,8.8
2022-12-27T06:35:00.231Z,8.8
2022-12-27T06:36:09.720Z,8.8
2022-12-27T06:37:00.267Z,8.8
2022-12-27T06:38:00.269Z,13.1
2022-12-27T06:39:00.897Z,13.1
2022-12-27T06:40:00.240Z,13.1
2022-12-27T06:41:01.065Z,13.1
2022-12-27T06:42:00.265Z,13.1
2022-12-27T06:43:00.220Z,7.7
2022-12-27T06:44:00.234Z,7.7
2022-12-27T06:45:00.246Z,7.7
2022-12-27T06:46:03.903Z,7.7
2022-12-27T06:47:00.452Z,7.7
2022-12-27T06:48:00.277Z,8.4
2022-12-27T06:49:00.249Z,8.4
2022-12-27T06:50:00.230Z,8.4
2022-12-27T06:51:03.484Z,8.4
2022-12-27T06:52:00.236Z,8.4
2022-12-27T06:53:00.249Z,7.8
2022-12-27T06:54:00.256Z,7.8
2022-12-27T06:55:00.234Z,7.8
2022-12-27T06:56:10.275Z,7.8
2022-12-27T06:57:00.214Z,7.8
2022-12-27T06:58:00.238Z,8.5
2022-12-27T06:59:00.253Z,8.5
2022-12-27T07:00:00.243Z,8.5
2022-12-27T07:01:08.445Z,8.5
2022-12-27T07:02:00.452Z,8.5
2022-12-27T07:03:02.617Z,10.0
2022-12-27T07:04:00.354Z,10.0
2022-12-27T07:05:00.228Z,10.0
2022-12-27T07:06:01.278Z,10.0
2022-12-27T07:07:00.226Z,10.0
2022-12-27T07:08:00.252Z,9.0
2022-12-27T07:09:00.396Z,9.0
2022-12-27T07:10:00.251Z,9.0
2022-12-27T07:11:02.108Z,9.0
2022-12-27T07:12:00.207Z,9.0
2022-12-27T07:13:00.212Z,7.2
2022-12-27T07:14:00.572Z,7.2
2022-12-27T07:15:00.251Z,7.2
2022-12-27T07:16:03.438Z,7.2
2022-12-27T07:17:00.312Z,7.2
2022-12-27T07:18:00.211Z,8.1
2022-12-27T07:19:00.245Z,8.1
2022-12-27T07:20:00.278Z,8.1
2022-12-27T07:21:04.585Z,8.1
2022-12-27T07:22:00.259Z,8.1
2022-12-27T07:23:00.245Z,7.3
2022-12-27T07:24:00.242Z,7.3
2022-12-27T07:25:00.227Z,7.3
2022-12-27T07:26:01.015Z,7.3
2022-12-27T07:27:00.582Z,7.3
2022-12-27T07:28:00.253Z,7.8
2022-12-27T07:29:00.896Z,7.8
2022-12-27T07:30:00.262Z,7.8
2022-12-27T07:31:05.169Z,7.8
2022-12-27T07:32:00.240Z,8.0
2022-12-27T07:33:00.226Z,8.0
2022-12-27T07:34:02.161Z,8.0
2022-12-27T07:35:00.286Z,8.0
2022-12-27T07:36:01.098Z,8.0
2022-12-27T07:37:00.243Z,7.9
2022-12-27T07:38:00.230Z,7.9
2022-12-27T07:39:00.520Z,7.9
2022-12-27T07:40:00.249Z,7.9
2022-12-27T07:41:01.270Z,7.9
2022-12-27T07:42:06.283Z,7.9
2022-12-27T07:43:00.212Z,7.9
2022-12-27T07:44:00.677Z,7.9
2022-12-27T07:45:00.241Z,7.9
2022-12-27T07:46:02.623Z,7.9
2022-12-27T07:47:00.259Z,7.5
2022-12-27T07:48:00.250Z,7.5
2022-12-27T07:49:00.244Z,7.5
2022-12-27T07:50:00.235Z,7.5
2022-12-27T07:51:00.539Z,7.5
2022-12-27T07:52:00.230Z,5.5
2022-12-27T07:53:00.972Z,5.5
2022-12-27T07:54:00.412Z,5.5
2022-12-27T07:55:00.274Z,5.5
2022-12-27T07:56:10.579Z,5.5
2022-12-27T07:57:00.227Z,9.1
2022-12-27T07:58:00.221Z,9.1
2022-12-27T07:59:01.384Z,9.1
2022-12-27T08:00:00.255Z,9.1
2022-12-27T08:01:02.410Z,9.1
2022-12-27T08:02:00.365Z,5.7
2022-12-27T08:03:00.352Z,5.7
2022-12-27T08:04:00.231Z,5.7
2022-12-27T08:05:00.256Z,5.7
2022-12-27T08:06:00.303Z,5.7
2022-12-27T08:07:04.717Z,6.6
2022-12-27T08:08:00.244Z,6.6
2022-12-27T08:09:05.332Z,6.6
2022-12-27T08:10:00.241Z,6.6
2022-12-27T08:11:05.357Z,6.6
2022-12-27T08:12:00.336Z,5.2
2022-12-27T08:13:00.220Z,5.2
2022-12-27T08:14:00.275Z,5.2
2022-12-27T08:15:00.313Z,5.2
2022-12-27T08:16:01.022Z,5.2
2022-12-27T08:17:04.312Z,8.6
2022-12-27T08:18:00.241Z,8.6
2022-12-27T08:19:04.868Z,8.6
2022-12-27T08:20:00.235Z,8.6
2022-12-27T08:21:00.229Z,8.6
2022-12-27T08:22:00.361Z,6.6
2022-12-27T08:23:00.288Z,6.6
2022-12-27T08:24:00.234Z,6.6
2022-12-27T08:25:00.395Z,6.6
2022-12-27T08:26:00.246Z,6.6
2022-12-27T08:27:00.255Z,5.1
2022-12-27T08:28:03.883Z,5.1
2022-12-27T08:29:00.255Z,5.1
2022-12-27T08:30:00.236Z,5.1
2022-12-27T08:31:00.471Z,5.1
2022-12-27T08:32:00.266Z,6.1
2022-12-27T08:33:01.443Z,6.1
2022-12-27T08:34:00.275Z,6.1
2022-12-27T08:35:18.375Z,6.1
2022-12-27T08:36:15.723Z,6.1
2022-12-27T08:37:00.239Z,8.7
2022-12-27T08:38:00.600Z,8.7
2022-12-27T08:39:00.335Z,8.7
2022-12-27T08:40:02.923Z,8.7
2022-12-27T08:41:00.951Z,8.7
2022-12-27T08:42:00.209Z,6.2
2022-12-27T08:43:00.202Z,6.2
2022-12-27T08:44:00.204Z,6.2
2022-12-27T08:45:00.265Z,6.2
2022-12-27T08:46:02.954Z,6.2
2022-12-27T08:47:00.173Z,24.0
2022-12-27T08:48:00.928Z,24.0
2022-12-27T08:49:00.188Z,24.0
2022-12-27T08:50:00.178Z,24.0
2022-12-27T08:51:11.988Z,24.0
2022-12-27T08:52:00.226Z,6.8
2022-12-27T08:53:02.413Z,6.8
2022-12-27T08:54:00.190Z,6.8
2022-12-27T08:55:01.106Z,6.8
2022-12-27T08:56:00.219Z,6.8
2022-12-27T08:57:00.175Z,6.1
2022-12-27T08:58:02.709Z,6.1
2022-12-27T08:59:00.362Z,6.1
2022-12-27T09:00:00.186Z,6.1
2022-12-27T09:01:08.933Z,6.1
2022-12-27T09:02:00.358Z,9.4
2022-12-27T09:03:00.254Z,9.4
2022-12-27T09:04:00.193Z,9.4
2022-12-27T09:05:00.184Z,9.4
2022-12-27T09:06:11.311Z,9.4
2022-12-27T09:07:00.151Z,5.6
2022-12-27T09:08:00.178Z,5.6
2022-12-27T09:09:00.244Z,5.6
2022-12-27T09:10:00.179Z,5.6
2022-12-27T09:11:18.877Z,5.6
2022-12-27T09:12:03.157Z,4.5
2022-12-27T09:13:00.174Z,4.5
2022-12-27T09:14:03.397Z,4.5
2022-12-27T09:15:00.188Z,4.5
2022-12-27T09:16:03.750Z,4.5
2022-12-27T09:17:00.243Z,4.9
2022-12-27T09:18:00.190Z,4.9
2022-12-27T09:19:01.022Z,4.9
2022-12-27T09:20:00.361Z,4.9
2022-12-27T09:21:04.784Z,4.9
2022-12-27T09:22:00.192Z,3.9
2022-12-27T09:23:00.200Z,3.9
2022-12-27T09:24:00.298Z,3.9
2022-12-27T09:25:00.320Z,3.9
2022-12-27T09:26:04.545Z,3.9
2022-12-27T09:27:00.233Z,7.2
2022-12-27T09:28:00.207Z,7.2
2022-12-27T09:29:00.276Z,7.2
2022-12-27T09:30:00.232Z,7.2
2022-12-27T09:31:00.625Z,7.2
2022-12-27T09:32:00.248Z,6.8
2022-12-27T09:33:00.223Z,6.8
2022-12-27T09:34:00.368Z,6.8
2022-12-27T09:35:01.458Z,6.8
2022-12-27T09:36:03.604Z,6.8
2022-12-27T09:37:00.288Z,7.5
2022-12-27T09:38:00.232Z,7.5
2022-12-27T09:39:00.274Z,7.5
2022-12-27T09:40:00.225Z,7.5
2022-12-27T09:41:04.502Z,7.5
2022-12-27T09:43:19.450Z,6.0
2022-12-27T09:44:06.071Z,6.0
2022-12-27T09:45:16.052Z,6.0
2022-12-27T09:46:01.758Z,6.0
2022-12-27T09:47:10.192Z,7.0
2022-12-27T09:48:04.806Z,7.0
2022-12-27T09:49:00.321Z,7.0
2022-12-27T09:50:05.528Z,7.0
2022-12-27T09:51:07.447Z,7.0
2022-12-27T09:52:11.537Z,6.9
2022-12-27T09:53:07.666Z,6.9
2022-12-27T09:54:09.639Z,6.9
2022-12-27T09:55:06.947Z,6.9
2022-12-27T09:56:00.358Z,6.9
2022-12-27T09:57:19.442Z,5.6
2022-12-27T09:58:20.197Z,5.6
2022-12-27T09:59:06.104Z,5.6
2022-12-27T10:00:01.533Z,5.6
2022-12-27T10:01:01.124Z,5.6
2022-12-27T10:02:00.667Z,7.4
2022-12-27T10:03:04.108Z,7.4
2022-12-27T10:04:01.074Z,7.4
2022-12-27T10:05:21.576Z,7.4
2022-12-27T10:06:20.125Z,7.4
2022-12-27T10:07:19.449Z,6.6
2022-12-27T10:08:10.178Z,6.6
2022-12-27T10:09:20.178Z,6.6
2022-12-27T10:10:04.494Z,6.6
2022-12-27T10:11:11.165Z,6.6
2022-12-27T10:12:17.661Z,8.0
2022-12-27T10:13:07.704Z,8.0
2022-12-27T10:14:14.962Z,8.0
2022-12-27T10:15:17.636Z,8.0
2022-12-27T10:16:20.198Z,8.0
2022-12-27T10:17:12.547Z,6.8
2022-12-27T10:18:12.789Z,6.8
2022-12-27T10:19:04.562Z,6.8
2022-12-27T10:20:20.235Z,6.8
2022-12-27T10:21:00.212Z,6.8
2022-12-27T10:22:11.192Z,4.5
2022-12-27T10:23:06.641Z,4.5
2022-12-27T10:24:20.143Z,4.5
2022-12-27T10:25:03.860Z,4.5
2022-12-27T10:26:04.189Z,4.5
2022-12-27T10:27:01.167Z,7.0
2022-12-27T10:28:09.452Z,7.0
2022-12-27T10:29:10.512Z,7.0
2022-12-27T10:30:01.004Z,7.0
2022-12-27T10:31:02.938Z,7.0
2022-12-27T10:32:00.265Z,7.8
2022-12-27T10:33:00.304Z,7.8
2022-12-27T10:34:00.297Z,7.8
2022-12-27T10:35:03.007Z,7.8
2022-12-27T10:36:08.849Z,7.8
2022-12-27T10:37:00.248Z,6.2
2022-12-27T10:38:00.378Z,6.2
2022-12-27T10:39:05.032Z,6.2
2022-12-27T10:40:10.181Z,6.2
2022-12-27T10:41:16.232Z,6.2
2022-12-27T10:42:08.593Z,7.0
2022-12-27T10:43:02.740Z,7.0
2022-12-27T10:44:00.261Z,7.0
2022-12-27T10:45:20.122Z,7.0
2022-12-27T10:46:11.868Z,7.0
2022-12-27T10:47:00.918Z,7.7
2022-12-27T10:48:10.247Z,7.7
2022-12-27T10:49:21.547Z,7.7
2022-12-27T10:50:11.250Z,7.7
2022-12-27T10:51:06.579Z,7.7
2022-12-27T10:52:14.550Z,6.6
2022-12-27T10:53:00.292Z,6.6
2022-12-27T10:54:04.248Z,6.6
2022-12-27T10:55:00.263Z,6.6
2022-12-27T10:56:06.656Z,6.6
2022-12-27T10:57:20.119Z,5.9
2022-12-27T10:58:18.016Z,5.9
2022-12-27T10:59:14.911Z,5.9
2022-12-27T11:00:20.130Z,5.9
2022-12-27T11:01:00.337Z,5.9
2022-12-27T11:02:00.444Z,7.0
2022-12-27T11:03:00.253Z,7.0
2022-12-27T11:04:20.914Z,7.0
2022-12-27T11:05:00.174Z,7.0
2022-12-27T11:06:03.314Z,7.0
2022-12-27T11:07:00.238Z,5.5
2022-12-27T11:08:18.543Z,5.5
2022-12-27T11:09:20.097Z,5.5
2022-12-27T11:10:07.502Z,5.5
2022-12-27T11:11:12.306Z,5.5
2022-12-27T11:12:10.102Z,5.5
2022-12-27T11:13:03.136Z,5.5
2022-12-27T11:14:09.513Z,5.5
2022-12-27T11:15:02.414Z,5.5
2022-12-27T11:16:00.217Z,5.5
2022-12-27T11:17:00.213Z,6.2
2022-12-27T11:18:10.612Z,6.2
2022-12-27T11:19:02.104Z,6.2
2022-12-27T11:20:10.746Z,6.2
2022-12-27T11:21:00.643Z,6.2
2022-12-27T11:22:04.542Z,6.0
2022-12-27T11:23:07.458Z,6.0
2022-12-27T11:24:01.601Z,6.0
2022-12-27T11:25:00.202Z,6.0
2022-12-27T11:26:04.065Z,6.0
2022-12-27T11:27:00.572Z,6.0
2022-12-27T11:28:03.689Z,6.0
2022-12-27T11:29:01.299Z,6.0
2022-12-27T11:30:00.336Z,6.0
2022-12-27T11:31:04.407Z,6.0
2022-12-27T11:32:05.532Z,5.8
2022-12-27T11:33:03.628Z,5.8
2022-12-27T11:34:06.710Z,5.8
2022-12-27T11:35:00.278Z,5.8
2022-12-27T11:36:00.317Z,5.8
2022-12-27T11:37:05.472Z,5.1
2022-12-27T11:38:00.268Z,5.1
2022-12-27T11:39:00.836Z,5.1
2022-12-27T11:40:20.107Z,5.1
2022-12-27T11:41:14.439Z,5.1
2022-12-27T11:42:03.499Z,5.1
2022-12-27T11:43:05.045Z,5.1
2022-12-27T11:44:18.452Z,5.1
2022-12-27T11:45:17.720Z,5.1
2022-12-27T11:46:04.663Z,5.1
2022-12-27T11:47:10.278Z,4.3
2022-12-27T11:48:13.448Z,4.3
2022-12-27T11:49:03.527Z,4.3
2022-12-27T11:50:20.137Z,4.3
2022-12-27T11:51:20.134Z,4.3
2022-12-27T11:52:20.176Z,5.5
2022-12-27T11:53:20.185Z,5.5
2022-12-27T11:54:13.306Z,5.5
2022-12-27T11:55:16.989Z,5.5
2022-12-27T11:56:17.294Z,5.5
2022-12-27T11:57:11.335Z,5.3
2022-12-27T11:58:15.931Z,5.3
2022-12-27T11:59:19.876Z,5.3
2022-12-27T12:00:14.761Z,5.3
2022-12-27T12:01:20.156Z,5.3
2022-12-27T12:02:20.180Z,8.1
2022-12-27T12:03:19.837Z,8.1
2022-12-27T12:04:20.166Z,8.1
2022-12-27T12:05:17.559Z,8.1
2022-12-27T12:06:20.132Z,8.1
2022-12-27T12:07:20.181Z,5.7
2022-12-27T12:08:10.199Z,5.7
2022-12-27T12:09:07.658Z,5.7
2022-12-27T12:10:13.514Z,5.7
2022-12-27T12:11:10.191Z,5.7
2022-12-27T12:12:20.146Z,6.5
2022-12-27T12:13:08.019Z,6.5
2022-12-27T12:14:20.135Z,6.5
2022-12-27T12:15:11.187Z,6.5
2022-12-27T12:16:20.167Z,6.5
2022-12-27T12:17:14.395Z,4.5
2022-12-27T12:18:20.152Z,4.5
2022-12-27T12:19:16.798Z,4.5
2022-12-27T12:20:11.186Z,4.5
2022-12-27T12:21:20.145Z,4.5
2022-12-27T12:22:20.179Z,5.2
2022-12-27T12:23:12.290Z,5.2
2022-12-27T12:24:20.127Z,5.2
2022-12-27T12:25:18.202Z,5.2
2022-12-27T12:26:07.133Z,5.2
2022-12-27T12:27:20.152Z,7.2
2022-12-27T12:28:55.602Z,7.2
2022-12-27T12:29:11.986Z,7.2
2022-12-27T12:30:14.126Z,7.2
2022-12-27T12:31:20.175Z,5.9
2022-12-27T12:32:06.759Z,5.9
2022-12-27T12:33:13.805Z,5.9
2022-12-27T12:34:11.219Z,5.9
2022-12-27T12:35:06.842Z,5.9
2022-12-27T12:36:10.187Z,5.9
2022-12-27T12:37:20.180Z,5.9
2022-12-27T12:38:20.172Z,5.9
2022-12-27T12:39:19.014Z,5.9
2022-12-27T12:40:20.132Z,5.9
2022-12-27T12:41:19.057Z,4.0
2022-12-27T12:42:11.271Z,4.0
2022-12-27T12:43:13.440Z,4.0
2022-12-27T12:44:11.247Z,4.0
2022-12-27T12:45:10.252Z,4.0
2022-12-27T12:46:18.163Z,5.5
2022-12-27T12:47:09.815Z,5.5
2022-12-27T12:48:10.168Z,5.5
2022-12-27T12:49:19.104Z,5.5
2022-12-27T12:50:13.350Z,5.5
2022-12-27T12:51:10.180Z,5.5
2022-12-27T12:52:10.171Z,5.1
2022-12-27T12:53:15.783Z,5.1
2022-12-27T12:54:16.838Z,5.1
2022-12-27T12:55:10.148Z,5.1
2022-12-27T12:56:20.165Z,6.8
2022-12-27T12:57:17.399Z,6.8
2022-12-27T12:58:20.121Z,6.8
2022-12-27T12:59:20.125Z,6.8
2022-12-27T13:00:01.225Z,6.8
2022-12-27T13:01:18.190Z,5.8
2022-12-27T13:02:10.360Z,5.8
2022-12-27T13:03:10.281Z,5.8
2022-12-27T13:04:17.504Z,5.8
2022-12-27T13:05:09.754Z,5.8
2022-12-27T13:06:13.746Z,5.8
2022-12-27T13:07:15.844Z,5.3
2022-12-27T13:08:07.161Z,5.3
2022-12-27T13:09:20.146Z,5.3
2022-12-27T13:10:16.962Z,5.3
2022-12-27T13:11:10.178Z,5.3
2022-12-27T13:12:09.340Z,6.2
2022-12-27T13:13:20.144Z,6.2
2022-12-27T13:14:01.245Z,6.2
2022-12-27T13:15:03.501Z,6.2
2022-12-27T13:16:14.805Z,5.4
2022-12-27T13:17:12.751Z,5.4
2022-12-27T13:18:06.858Z,5.4
2022-12-27T13:19:16.540Z,5.4
2022-12-27T13:20:20.125Z,5.4
2022-12-27T13:21:16.171Z,6.7
2022-12-27T13:22:15.215Z,6.7
2022-12-27T13:23:19.203Z,6.7
2022-12-27T13:24:15.839Z,6.7
2022-12-27T13:25:09.853Z,6.7
2022-12-27T13:26:12.823Z,6.8
2022-12-27T13:27:09.590Z,6.8
2022-12-27T13:28:20.124Z,6.8
2022-12-27T13:29:20.123Z,6.8
2022-12-27T13:30:06.826Z,6.8
2022-12-27T13:31:20.160Z,5.7
2022-12-27T13:32:15.980Z,5.7
2022-12-27T13:33:18.603Z,5.7
2022-12-27T13:34:20.124Z,5.7
2022-12-27T13:35:20.465Z,5.7
2022-12-27T13:36:17.399Z,6.8
2022-12-27T13:37:08.766Z,6.8
2022-12-27T13:38:20.125Z,6.8
2022-12-27T13:39:20.122Z,6.8
2022-12-27T13:40:20.154Z,6.8
2022-12-27T13:41:23.601Z,5.8
2022-12-27T13:42:20.168Z,5.8
2022-12-27T13:43:18.541Z,5.8
2022-12-27T13:44:20.129Z,5.8
2022-12-27T13:45:16.981Z,5.8